sensor_id;sensor_type;location;lat;lon;timestamp;P1;durP1;ratioP1;P2;durP2;ratioP2
75038;SDS011;63609;49.992;14.512;2023-09-07T00:03:31;10.93;;;5.10;;
75038;SDS011;63609;49.992;14.512;2023-09-07T00:05:59;9.38;;;4.93;;
75038;SDS011;63609;49.992;14.512;2023-09-07T00:08:26;7.40;;;5.03;;
75038;SDS011;63609;49.992;14.512;2023-09-07T00:10:53;10.50;;;5.78;;
75038;SDS011;63609;49.992;14.512;2023-09-07T00:13:21;8.18;;;5.32;;
75038;SDS011;63609;49.992;14.512;2023-09-07T00:15:48;9.32;;;5.30;;
75038;SDS011;63609;49.992;14.512;2023-09-07T00:18:15;8.20;;;5.95;;
75038;SDS011;63609;49.992;14.512;2023-09-07T00:20:45;10.57;;;6.55;;
75038;SDS011;63609;49.992;14.512;2023-09-07T00:23:12;8.80;;;5.88;;
75038;SDS011;63609;49.992;14.512;2023-09-07T00:25:40;8.13;;;5.32;;
75038;SDS011;63609;49.992;14.512;2023-09-07T00:28:07;8.10;;;5.57;;
75038;SDS011;63609;49.992;14.512;2023-09-07T00:30:34;9.57;;;5.40;;
75038;SDS011;63609;49.992;14.512;2023-09-07T00:33:01;8.43;;;5.25;;
75038;SDS011;63609;49.992;14.512;2023-09-07T00:35:28;9.82;;;5.50;;
75038;SDS011;63609;49.992;14.512;2023-09-07T00:37:56;9.38;;;5.95;;
75038;SDS011;63609;49.992;14.512;2023-09-07T00:40:23;8.20;;;5.57;;
75038;SDS011;63609;49.992;14.512;2023-09-07T00:42:50;9.63;;;5.47;;
75038;SDS011;63609;49.992;14.512;2023-09-07T00:45:17;9.20;;;5.53;;
75038;SDS011;63609;49.992;14.512;2023-09-07T00:47:45;7.25;;;5.03;;
75038;SDS011;63609;49.992;14.512;2023-09-07T00:50:14;9.18;;;5.65;;
75038;SDS011;63609;49.992;14.512;2023-09-07T00:52:43;8.73;;;5.40;;
75038;SDS011;63609;49.992;14.512;2023-09-07T00:55:11;9.48;;;5.78;;
75038;SDS011;63609;49.992;14.512;2023-09-07T00:57:40;9.93;;;4.88;;
75038;SDS011;63609;49.992;14.512;2023-09-07T01:00:11;8.30;;;4.78;;
75038;SDS011;63609;49.992;14.512;2023-09-07T01:02:38;10.48;;;5.32;;
75038;SDS011;63609;49.992;14.512;2023-09-07T01:05:05;8.57;;;4.28;;
75038;SDS011;63609;49.992;14.512;2023-09-07T01:07:41;8.57;;;5.00;;
75038;SDS011;63609;49.992;14.512;2023-09-07T01:10:13;7.25;;;4.50;;
75038;SDS011;63609;49.992;14.512;2023-09-07T01:12:40;8.90;;;5.07;;
75038;SDS011;63609;49.992;14.512;2023-09-07T01:15:08;8.90;;;5.82;;
75038;SDS011;63609;49.992;14.512;2023-09-07T01:17:37;9.93;;;4.70;;
75038;SDS011;63609;49.992;14.512;2023-09-07T01:20:05;13.50;;;5.43;;
75038;SDS011;63609;49.992;14.512;2023-09-07T01:22:36;7.57;;;4.82;;
75038;SDS011;63609;49.992;14.512;2023-09-07T01:25:05;9.07;;;5.72;;
75038;SDS011;63609;49.992;14.512;2023-09-07T01:27:34;8.90;;;5.40;;
75038;SDS011;63609;49.992;14.512;2023-09-07T01:30:01;8.88;;;5.60;;
75038;SDS011;63609;49.992;14.512;2023-09-07T01:32:30;12.63;;;5.45;;
75038;SDS011;63609;49.992;14.512;2023-09-07T01:34:58;9.13;;;5.45;;
75038;SDS011;63609;49.992;14.512;2023-09-07T01:37:26;11.00;;;5.82;;
75038;SDS011;63609;49.992;14.512;2023-09-07T01:39:53;9.32;;;5.68;;
75038;SDS011;63609;49.992;14.512;2023-09-07T01:42:20;9.95;;;5.70;;
75038;SDS011;63609;49.992;14.512;2023-09-07T01:44:49;12.10;;;6.93;;
75038;SDS011;63609;49.992;14.512;2023-09-07T01:47:16;9.27;;;6.35;;
75038;SDS011;63609;49.992;14.512;2023-09-07T01:49:43;11.35;;;5.80;;
75038;SDS011;63609;49.992;14.512;2023-09-07T01:52:11;9.60;;;5.82;;
75038;SDS011;63609;49.992;14.512;2023-09-07T01:54:38;8.43;;;5.75;;
75038;SDS011;63609;49.992;14.512;2023-09-07T01:57:12;9.32;;;6.22;;
75038;SDS011;63609;49.992;14.512;2023-09-07T01:59:40;10.90;;;6.82;;
75038;SDS011;63609;49.992;14.512;2023-09-07T02:02:07;10.68;;;6.28;;
75038;SDS011;63609;49.992;14.512;2023-09-07T02:04:35;10.07;;;5.85;;
75038;SDS011;63609;49.992;14.512;2023-09-07T02:07:02;9.00;;;6.00;;
75038;SDS011;63609;49.992;14.512;2023-09-07T02:09:31;8.35;;;5.50;;
75038;SDS011;63609;49.992;14.512;2023-09-07T02:11:58;8.98;;;5.65;;
75038;SDS011;63609;49.992;14.512;2023-09-07T02:14:25;11.00;;;6.13;;
75038;SDS011;63609;49.992;14.512;2023-09-07T02:16:52;8.90;;;5.82;;
75038;SDS011;63609;49.992;14.512;2023-09-07T02:19:19;11.43;;;6.72;;
75038;SDS011;63609;49.992;14.512;2023-09-07T02:21:49;11.02;;;6.68;;
75038;SDS011;63609;49.992;14.512;2023-09-07T02:24:18;10.85;;;6.20;;
75038;SDS011;63609;49.992;14.512;2023-09-07T02:26:45;11.10;;;6.40;;
75038;SDS011;63609;49.992;14.512;2023-09-07T02:29:13;9.70;;;6.07;;
75038;SDS011;63609;49.992;14.512;2023-09-07T02:31:40;9.05;;;5.30;;
75038;SDS011;63609;49.992;14.512;2023-09-07T02:34:07;9.57;;;6.88;;
75038;SDS011;63609;49.992;14.512;2023-09-07T02:36:35;8.88;;;6.03;;
75038;SDS011;63609;49.992;14.512;2023-09-07T02:39:02;9.93;;;5.63;;
75038;SDS011;63609;49.992;14.512;2023-09-07T02:41:31;9.70;;;5.55;;
75038;SDS011;63609;49.992;14.512;2023-09-07T02:43:58;8.93;;;6.07;;
75038;SDS011;63609;49.992;14.512;2023-09-07T02:46:25;10.73;;;7.00;;
75038;SDS011;63609;49.992;14.512;2023-09-07T02:48:52;10.85;;;6.57;;
75038;SDS011;63609;49.992;14.512;2023-09-07T02:51:25;11.80;;;6.57;;
75038;SDS011;63609;49.992;14.512;2023-09-07T02:53:55;10.55;;;7.05;;
75038;SDS011;63609;49.992;14.512;2023-09-07T02:56:23;10.60;;;6.80;;
75038;SDS011;63609;49.992;14.512;2023-09-07T02:58:50;12.00;;;7.63;;
75038;SDS011;63609;49.992;14.512;2023-09-07T03:01:20;13.68;;;7.32;;
75038;SDS011;63609;49.992;14.512;2023-09-07T03:03:49;11.02;;;6.95;;
75038;SDS011;63609;49.992;14.512;2023-09-07T03:06:17;11.60;;;6.95;;
75038;SDS011;63609;49.992;14.512;2023-09-07T03:08:48;10.82;;;6.45;;
75038;SDS011;63609;49.992;14.512;2023-09-07T03:11:16;11.48;;;6.82;;
75038;SDS011;63609;49.992;14.512;2023-09-07T03:13:43;9.82;;;6.43;;
75038;SDS011;63609;49.992;14.512;2023-09-07T03:16:11;11.05;;;6.53;;
75038;SDS011;63609;49.992;14.512;2023-09-07T03:18:39;10.32;;;6.78;;
75038;SDS011;63609;49.992;14.512;2023-09-07T03:21:07;11.30;;;6.53;;
75038;SDS011;63609;49.992;14.512;2023-09-07T03:23:34;11.13;;;7.15;;
75038;SDS011;63609;49.992;14.512;2023-09-07T03:26:02;14.48;;;6.97;;
75038;SDS011;63609;49.992;14.512;2023-09-07T03:28:31;11.05;;;6.90;;
75038;SDS011;63609;49.992;14.512;2023-09-07T03:30:58;12.32;;;6.50;;
75038;SDS011;63609;49.992;14.512;2023-09-07T03:33:26;10.70;;;6.65;;
75038;SDS011;63609;49.992;14.512;2023-09-07T03:35:53;11.63;;;7.20;;
75038;SDS011;63609;49.992;14.512;2023-09-07T03:38:25;12.40;;;6.78;;
75038;SDS011;63609;49.992;14.512;2023-09-07T03:40:52;11.13;;;6.55;;
75038;SDS011;63609;49.992;14.512;2023-09-07T03:43:19;11.75;;;6.80;;
75038;SDS011;63609;49.992;14.512;2023-09-07T03:45:46;11.98;;;7.72;;
75038;SDS011;63609;49.992;14.512;2023-09-07T03:48:13;12.40;;;7.45;;
75038;SDS011;63609;49.992;14.512;2023-09-07T03:50:41;14.63;;;7.70;;
75038;SDS011;63609;49.992;14.512;2023-09-07T03:53:08;11.30;;;7.03;;
75038;SDS011;63609;49.992;14.512;2023-09-07T03:55:39;13.40;;;8.25;;
75038;SDS011;63609;49.992;14.512;2023-09-07T03:58:09;14.00;;;8.13;;
75038;SDS011;63609;49.992;14.512;2023-09-07T04:00:39;13.68;;;7.82;;
75038;SDS011;63609;49.992;14.512;2023-09-07T04:03:10;14.90;;;8.57;;
75038;SDS011;63609;49.992;14.512;2023-09-07T04:05:37;17.40;;;9.43;;
75038;SDS011;63609;49.992;14.512;2023-09-07T04:08:05;13.77;;;8.52;;
75038;SDS011;63609;49.992;14.512;2023-09-07T04:10:37;15.23;;;9.50;;
75038;SDS011;63609;49.992;14.512;2023-09-07T04:13:05;13.77;;;8.30;;
75038;SDS011;63609;49.992;14.512;2023-09-07T04:15:42;15.35;;;8.95;;
75038;SDS011;63609;49.992;14.512;2023-09-07T04:18:12;12.82;;;7.65;;
75038;SDS011;63609;49.992;14.512;2023-09-07T04:20:42;15.10;;;8.75;;
75038;SDS011;63609;49.992;14.512;2023-09-07T04:23:11;15.15;;;9.40;;
75038;SDS011;63609;49.992;14.512;2023-09-07T04:25:40;10.98;;;7.30;;
75038;SDS011;63609;49.992;14.512;2023-09-07T04:28:08;14.23;;;9.60;;
75038;SDS011;63609;49.992;14.512;2023-09-07T04:30:39;12.65;;;7.90;;
75038;SDS011;63609;49.992;14.512;2023-09-07T04:33:07;13.73;;;8.65;;
75038;SDS011;63609;49.992;14.512;2023-09-07T04:35:38;13.93;;;7.95;;
75038;SDS011;63609;49.992;14.512;2023-09-07T04:38:07;12.20;;;7.72;;
75038;SDS011;63609;49.992;14.512;2023-09-07T04:40:35;15.48;;;9.32;;
75038;SDS011;63609;49.992;14.512;2023-09-07T04:43:02;16.42;;;9.35;;
75038;SDS011;63609;49.992;14.512;2023-09-07T04:45:29;16.40;;;9.90;;
75038;SDS011;63609;49.992;14.512;2023-09-07T04:47:57;17.30;;;10.23;;
75038;SDS011;63609;49.992;14.512;2023-09-07T04:50:24;17.05;;;10.18;;
75038;SDS011;63609;49.992;14.512;2023-09-07T04:52:52;16.45;;;9.88;;
75038;SDS011;63609;49.992;14.512;2023-09-07T04:55:19;17.15;;;10.20;;
75038;SDS011;63609;49.992;14.512;2023-09-07T04:57:46;18.33;;;9.63;;
75038;SDS011;63609;49.992;14.512;2023-09-07T05:00:15;17.35;;;9.70;;
75038;SDS011;63609;49.992;14.512;2023-09-07T05:02:44;18.05;;;9.95;;
75038;SDS011;63609;49.992;14.512;2023-09-07T05:05:13;16.60;;;9.65;;
75038;SDS011;63609;49.992;14.512;2023-09-07T05:07:40;13.80;;;8.48;;
75038;SDS011;63609;49.992;14.512;2023-09-07T05:10:08;15.20;;;8.57;;
75038;SDS011;63609;49.992;14.512;2023-09-07T05:12:39;14.95;;;8.75;;
75038;SDS011;63609;49.992;14.512;2023-09-07T05:15:06;17.00;;;9.85;;
75038;SDS011;63609;49.992;14.512;2023-09-07T05:17:34;17.08;;;9.35;;
75038;SDS011;63609;49.992;14.512;2023-09-07T05:20:02;14.55;;;9.55;;
75038;SDS011;63609;49.992;14.512;2023-09-07T05:22:29;14.30;;;9.35;;
75038;SDS011;63609;49.992;14.512;2023-09-07T05:24:57;16.67;;;9.52;;
75038;SDS011;63609;49.992;14.512;2023-09-07T05:27:28;16.67;;;9.77;;
75038;SDS011;63609;49.992;14.512;2023-09-07T05:29:55;19.25;;;10.57;;
75038;SDS011;63609;49.992;14.512;2023-09-07T05:32:24;18.92;;;10.02;;
75038;SDS011;63609;49.992;14.512;2023-09-07T05:35:17;20.38;;;10.68;;
75038;SDS011;63609;49.992;14.512;2023-09-07T05:37:44;18.95;;;10.27;;
75038;SDS011;63609;49.992;14.512;2023-09-07T05:40:15;17.30;;;10.55;;
75038;SDS011;63609;49.992;14.512;2023-09-07T05:42:42;18.88;;;11.63;;
75038;SDS011;63609;49.992;14.512;2023-09-07T05:45:10;18.05;;;9.98;;
75038;SDS011;63609;49.992;14.512;2023-09-07T05:47:37;19.35;;;10.57;;
75038;SDS011;63609;49.992;14.512;2023-09-07T05:50:06;20.60;;;11.77;;
75038;SDS011;63609;49.992;14.512;2023-09-07T05:52:34;18.30;;;10.85;;
75038;SDS011;63609;49.992;14.512;2023-09-07T05:55:01;19.25;;;11.30;;
75038;SDS011;63609;49.992;14.512;2023-09-07T05:57:29;17.65;;;11.25;;
75038;SDS011;63609;49.992;14.512;2023-09-07T05:59:57;20.45;;;11.15;;
75038;SDS011;63609;49.992;14.512;2023-09-07T06:02:24;19.70;;;10.60;;
75038;SDS011;63609;49.992;14.512;2023-09-07T06:04:51;18.00;;;10.63;;
75038;SDS011;63609;49.992;14.512;2023-09-07T06:07:19;18.88;;;10.68;;
75038;SDS011;63609;49.992;14.512;2023-09-07T06:09:46;18.30;;;10.23;;
75038;SDS011;63609;49.992;14.512;2023-09-07T06:12:16;15.50;;;10.00;;
75038;SDS011;63609;49.992;14.512;2023-09-07T06:17:16;14.48;;;9.05;;
75038;SDS011;63609;49.992;14.512;2023-09-07T06:19:44;16.58;;;10.60;;
75038;SDS011;63609;49.992;14.512;2023-09-07T06:22:13;15.13;;;8.18;;
75038;SDS011;63609;49.992;14.512;2023-09-07T06:24:40;13.88;;;8.52;;
75038;SDS011;63609;49.992;14.512;2023-09-07T06:27:08;13.07;;;8.30;;
75038;SDS011;63609;49.992;14.512;2023-09-07T06:29:37;12.93;;;7.65;;
75038;SDS011;63609;49.992;14.512;2023-09-07T06:32:04;11.82;;;7.32;;
75038;SDS011;63609;49.992;14.512;2023-09-07T06:34:32;9.68;;;6.35;;
75038;SDS011;63609;49.992;14.512;2023-09-07T06:37:06;14.93;;;7.60;;
75038;SDS011;63609;49.992;14.512;2023-09-07T06:39:35;10.18;;;6.72;;
75038;SDS011;63609;49.992;14.512;2023-09-07T06:42:03;11.93;;;7.13;;
75038;SDS011;63609;49.992;14.512;2023-09-07T06:44:39;10.63;;;6.95;;
75038;SDS011;63609;49.992;14.512;2023-09-07T06:47:10;11.48;;;7.07;;
75038;SDS011;63609;49.992;14.512;2023-09-07T06:49:38;11.50;;;7.28;;
75038;SDS011;63609;49.992;14.512;2023-09-07T06:52:06;12.43;;;7.68;;
75038;SDS011;63609;49.992;14.512;2023-09-07T06:54:37;11.57;;;7.15;;
75038;SDS011;63609;49.992;14.512;2023-09-07T06:57:06;11.63;;;7.47;;
75038;SDS011;63609;49.992;14.512;2023-09-07T06:59:36;13.10;;;6.95;;
75038;SDS011;63609;49.992;14.512;2023-09-07T07:02:03;12.88;;;7.10;;
75038;SDS011;63609;49.992;14.512;2023-09-07T07:04:34;9.75;;;6.40;;
75038;SDS011;63609;49.992;14.512;2023-09-07T07:07:03;8.18;;;5.53;;
75038;SDS011;63609;49.992;14.512;2023-09-07T07:09:31;9.55;;;5.38;;
75038;SDS011;63609;49.992;14.512;2023-09-07T07:11:59;11.02;;;5.13;;
75038;SDS011;63609;49.992;14.512;2023-09-07T07:14:30;9.70;;;5.25;;
75038;SDS011;63609;49.992;14.512;2023-09-07T07:16:58;7.30;;;5.25;;
75038;SDS011;63609;49.992;14.512;2023-09-07T07:19:27;8.07;;;4.97;;
75038;SDS011;63609;49.992;14.512;2023-09-07T07:21:55;9.25;;;5.68;;
75038;SDS011;63609;49.992;14.512;2023-09-07T07:24:23;9.23;;;5.43;;
75038;SDS011;63609;49.992;14.512;2023-09-07T07:26:50;10.63;;;5.72;;
75038;SDS011;63609;49.992;14.512;2023-09-07T07:29:17;10.85;;;5.22;;
75038;SDS011;63609;49.992;14.512;2023-09-07T07:31:45;13.00;;;5.20;;
75038;SDS011;63609;49.992;14.512;2023-09-07T07:34:14;8.80;;;5.78;;
75038;SDS011;63609;49.992;14.512;2023-09-07T07:36:43;9.63;;;5.60;;
75038;SDS011;63609;49.992;14.512;2023-09-07T07:39:10;7.25;;;4.85;;
75038;SDS011;63609;49.992;14.512;2023-09-07T07:41:39;8.95;;;5.30;;
75038;SDS011;63609;49.992;14.512;2023-09-07T07:44:09;10.60;;;5.90;;
75038;SDS011;63609;49.992;14.512;2023-09-07T07:46:36;8.15;;;4.93;;
75038;SDS011;63609;49.992;14.512;2023-09-07T07:49:03;8.63;;;5.20;;
75038;SDS011;63609;49.992;14.512;2023-09-07T07:51:34;8.23;;;5.25;;
75038;SDS011;63609;49.992;14.512;2023-09-07T07:54:01;8.82;;;5.03;;
75038;SDS011;63609;49.992;14.512;2023-09-07T07:56:32;8.73;;;5.57;;
75038;SDS011;63609;49.992;14.512;2023-09-07T07:59:01;10.35;;;5.25;;
75038;SDS011;63609;49.992;14.512;2023-09-07T08:01:29;6.65;;;4.50;;
75038;SDS011;63609;49.992;14.512;2023-09-07T08:03:59;7.75;;;5.10;;
75038;SDS011;63609;49.992;14.512;2023-09-07T08:06:33;6.70;;;4.72;;
75038;SDS011;63609;49.992;14.512;2023-09-07T08:09:02;9.27;;;5.10;;
75038;SDS011;63609;49.992;14.512;2023-09-07T08:11:30;8.65;;;4.68;;
75038;SDS011;63609;49.992;14.512;2023-09-07T08:13:58;7.75;;;4.45;;
75038;SDS011;63609;49.992;14.512;2023-09-07T08:16:28;8.25;;;5.57;;
75038;SDS011;63609;49.992;14.512;2023-09-07T08:18:58;7.53;;;4.65;;
75038;SDS011;63609;49.992;14.512;2023-09-07T08:21:26;8.55;;;4.28;;
75038;SDS011;63609;49.992;14.512;2023-09-07T08:23:53;10.38;;;4.60;;
75038;SDS011;63609;49.992;14.512;2023-09-07T08:26:21;7.78;;;4.15;;
75038;SDS011;63609;49.992;14.512;2023-09-07T08:28:48;7.88;;;5.13;;
75038;SDS011;63609;49.992;14.512;2023-09-07T08:31:15;9.13;;;4.57;;
75038;SDS011;63609;49.992;14.512;2023-09-07T08:33:49;6.90;;;4.88;;
75038;SDS011;63609;49.992;14.512;2023-09-07T08:36:22;7.68;;;4.80;;
75038;SDS011;63609;49.992;14.512;2023-09-07T08:38:50;8.38;;;4.72;;
75038;SDS011;63609;49.992;14.512;2023-09-07T08:41:23;7.55;;;4.22;;
75038;SDS011;63609;49.992;14.512;2023-09-07T08:43:50;8.05;;;4.68;;
75038;SDS011;63609;49.992;14.512;2023-09-07T08:46:20;7.07;;;4.03;;
75038;SDS011;63609;49.992;14.512;2023-09-07T08:48:51;7.35;;;4.10;;
75038;SDS011;63609;49.992;14.512;2023-09-07T08:51:19;11.88;;;4.15;;
75038;SDS011;63609;49.992;14.512;2023-09-07T08:53:46;11.80;;;4.85;;
75038;SDS011;63609;49.992;14.512;2023-09-07T08:56:14;13.82;;;4.93;;
75038;SDS011;63609;49.992;14.512;2023-09-07T08:58:44;10.27;;;4.57;;
75038;SDS011;63609;49.992;14.512;2023-09-07T09:01:12;10.75;;;4.45;;
75038;SDS011;63609;49.992;14.512;2023-09-07T09:03:43;8.02;;;4.25;;
75038;SDS011;63609;49.992;14.512;2023-09-07T09:06:12;7.43;;;4.60;;
75038;SDS011;63609;49.992;14.512;2023-09-07T09:08:49;8.98;;;4.55;;
75038;SDS011;63609;49.992;14.512;2023-09-07T09:11:19;7.22;;;5.20;;
75038;SDS011;63609;49.992;14.512;2023-09-07T09:13:49;9.55;;;4.78;;
75038;SDS011;63609;49.992;14.512;2023-09-07T09:16:17;10.48;;;4.70;;
75038;SDS011;63609;49.992;14.512;2023-09-07T09:18:55;12.10;;;5.10;;
75038;SDS011;63609;49.992;14.512;2023-09-07T09:23:54;9.48;;;4.60;;
75038;SDS011;63609;49.992;14.512;2023-09-07T09:26:23;10.13;;;4.38;;
75038;SDS011;63609;49.992;14.512;2023-09-07T09:28:55;7.47;;;4.43;;
75038;SDS011;63609;49.992;14.512;2023-09-07T09:31:24;7.65;;;4.60;;
75038;SDS011;63609;49.992;14.512;2023-09-07T09:33:52;9.30;;;5.00;;
75038;SDS011;63609;49.992;14.512;2023-09-07T09:36:20;7.53;;;4.85;;
75038;SDS011;63609;49.992;14.512;2023-09-07T09:38:49;8.18;;;4.55;;
75038;SDS011;63609;49.992;14.512;2023-09-07T09:41:22;9.65;;;4.70;;
75038;SDS011;63609;49.992;14.512;2023-09-07T09:43:49;9.25;;;4.20;;
75038;SDS011;63609;49.992;14.512;2023-09-07T09:46:18;6.32;;;4.07;;
75038;SDS011;63609;49.992;14.512;2023-09-07T09:48:45;6.45;;;4.40;;
75038;SDS011;63609;49.992;14.512;2023-09-07T09:51:14;7.05;;;4.63;;
75038;SDS011;63609;49.992;14.512;2023-09-07T09:53:44;7.18;;;3.90;;
75038;SDS011;63609;49.992;14.512;2023-09-07T09:56:11;8.13;;;4.25;;
75038;SDS011;63609;49.992;14.512;2023-09-07T09:58:38;11.38;;;3.97;;
75038;SDS011;63609;49.992;14.512;2023-09-07T10:01:06;6.60;;;4.15;;
75038;SDS011;63609;49.992;14.512;2023-09-07T10:03:36;8.10;;;4.32;;
75038;SDS011;63609;49.992;14.512;2023-09-07T10:06:22;6.28;;;4.40;;
75038;SDS011;63609;49.992;14.512;2023-09-07T10:09:02;7.47;;;4.43;;
75038;SDS011;63609;49.992;14.512;2023-09-07T10:11:50;6.22;;;4.00;;
75038;SDS011;63609;49.992;14.512;2023-09-07T10:14:20;5.47;;;4.22;;
75038;SDS011;63609;49.992;14.512;2023-09-07T10:16:48;6.53;;;4.22;;
75038;SDS011;63609;49.992;14.512;2023-09-07T10:19:20;7.10;;;4.60;;
75038;SDS011;63609;49.992;14.512;2023-09-07T10:21:48;5.50;;;4.00;;
75038;SDS011;63609;49.992;14.512;2023-09-07T10:24:23;6.47;;;4.38;;
75038;SDS011;63609;49.992;14.512;2023-09-07T10:27:08;6.35;;;4.03;;
75038;SDS011;63609;49.992;14.512;2023-09-07T10:29:45;9.13;;;4.63;;
75038;SDS011;63609;49.992;14.512;2023-09-07T10:32:17;8.18;;;4.03;;
75038;SDS011;63609;49.992;14.512;2023-09-07T10:34:48;7.88;;;4.57;;
75038;SDS011;63609;49.992;14.512;2023-09-07T10:37:15;5.53;;;4.28;;
75038;SDS011;63609;49.992;14.512;2023-09-07T10:39:43;6.07;;;4.05;;
75038;SDS011;63609;49.992;14.512;2023-09-07T10:42:21;10.70;;;4.05;;
75038;SDS011;63609;49.992;14.512;2023-09-07T10:44:52;6.40;;;3.97;;
75038;SDS011;63609;49.992;14.512;2023-09-07T10:47:21;6.55;;;3.97;;
75038;SDS011;63609;49.992;14.512;2023-09-07T10:49:49;6.10;;;3.78;;
75038;SDS011;63609;49.992;14.512;2023-09-07T10:52:16;6.82;;;4.05;;
75038;SDS011;63609;49.992;14.512;2023-09-07T10:54:43;6.60;;;3.97;;
75038;SDS011;63609;49.992;14.512;2023-09-07T10:57:11;6.30;;;4.13;;
75038;SDS011;63609;49.992;14.512;2023-09-07T10:59:46;7.47;;;4.20;;
75038;SDS011;63609;49.992;14.512;2023-09-07T11:02:14;7.00;;;4.13;;
75038;SDS011;63609;49.992;14.512;2023-09-07T11:04:43;5.07;;;3.97;;
75038;SDS011;63609;49.992;14.512;2023-09-07T11:07:10;5.63;;;4.03;;
75038;SDS011;63609;49.992;14.512;2023-09-07T11:09:41;6.25;;;4.20;;
75038;SDS011;63609;49.992;14.512;2023-09-07T11:12:19;6.47;;;4.40;;
75038;SDS011;63609;49.992;14.512;2023-09-07T11:14:53;7.60;;;4.50;;
75038;SDS011;63609;49.992;14.512;2023-09-07T11:17:26;6.47;;;3.00;;
75038;SDS011;63609;49.992;14.512;2023-09-07T11:19:56;5.15;;;2.60;;
75038;SDS011;63609;49.992;14.512;2023-09-07T11:22:23;7.15;;;4.10;;
75038;SDS011;63609;49.992;14.512;2023-09-07T11:24:50;5.72;;;2.95;;
75038;SDS011;63609;49.992;14.512;2023-09-07T11:27:17;6.10;;;4.03;;
75038;SDS011;63609;49.992;14.512;2023-09-07T11:29:52;7.32;;;4.60;;
75038;SDS011;63609;49.992;14.512;2023-09-07T11:32:19;7.70;;;4.18;;
75038;SDS011;63609;49.992;14.512;2023-09-07T11:34:51;4.90;;;3.00;;
75038;SDS011;63609;49.992;14.512;2023-09-07T11:37:25;5.05;;;3.00;;
75038;SDS011;63609;49.992;14.512;2023-09-07T11:39:53;6.78;;;3.90;;
75038;SDS011;63609;49.992;14.512;2023-09-07T11:42:20;6.95;;;4.03;;
75038;SDS011;63609;49.992;14.512;2023-09-07T11:44:47;7.35;;;4.15;;
75038;SDS011;63609;49.992;14.512;2023-09-07T11:47:14;6.70;;;3.85;;
75038;SDS011;63609;49.992;14.512;2023-09-07T11:49:41;7.82;;;4.03;;
75038;SDS011;63609;49.992;14.512;2023-09-07T11:52:08;8.07;;;4.38;;
75038;SDS011;63609;49.992;14.512;2023-09-07T11:54:35;8.02;;;3.83;;
75038;SDS011;63609;49.992;14.512;2023-09-07T11:57:04;8.10;;;3.92;;
75038;SDS011;63609;49.992;14.512;2023-09-07T11:59:32;8.13;;;4.22;;
75038;SDS011;63609;49.992;14.512;2023-09-07T12:02:18;6.68;;;3.60;;
75038;SDS011;63609;49.992;14.512;2023-09-07T12:04:48;5.25;;;3.60;;
75038;SDS011;63609;49.992;14.512;2023-09-07T12:07:15;7.05;;;4.00;;
75038;SDS011;63609;49.992;14.512;2023-09-07T12:09:42;5.68;;;3.80;;
75038;SDS011;63609;49.992;14.512;2023-09-07T12:12:09;4.45;;;3.15;;
75038;SDS011;63609;49.992;14.512;2023-09-07T12:14:37;7.47;;;4.00;;
75038;SDS011;63609;49.992;14.512;2023-09-07T12:17:04;7.97;;;3.92;;
75038;SDS011;63609;49.992;14.512;2023-09-07T12:19:31;6.18;;;4.38;;
75038;SDS011;63609;49.992;14.512;2023-09-07T12:21:59;5.68;;;3.72;;
75038;SDS011;63609;49.992;14.512;2023-09-07T12:24:26;7.60;;;4.07;;
75038;SDS011;63609;49.992;14.512;2023-09-07T12:26:54;4.85;;;3.00;;
75038;SDS011;63609;49.992;14.512;2023-09-07T12:29:22;6.20;;;3.00;;
75038;SDS011;63609;49.992;14.512;2023-09-07T12:31:48;6.25;;;3.00;;
75038;SDS011;63609;49.992;14.512;2023-09-07T12:34:16;6.47;;;3.97;;
75038;SDS011;63609;49.992;14.512;2023-09-07T12:36:46;5.22;;;3.80;;
75038;SDS011;63609;49.992;14.512;2023-09-07T12:39:16;7.68;;;4.22;;
75038;SDS011;63609;49.992;14.512;2023-09-07T12:41:44;8.02;;;3.80;;
75038;SDS011;63609;49.992;14.512;2023-09-07T12:44:11;5.53;;;3.42;;
75038;SDS011;63609;49.992;14.512;2023-09-07T12:46:39;7.18;;;3.25;;
75038;SDS011;63609;49.992;14.512;2023-09-07T12:49:06;4.90;;;3.25;;
75038;SDS011;63609;49.992;14.512;2023-09-07T12:51:36;6.68;;;3.65;;
75038;SDS011;63609;49.992;14.512;2023-09-07T12:54:05;5.25;;;3.60;;
75038;SDS011;63609;49.992;14.512;2023-09-07T12:56:33;7.18;;;3.88;;
75038;SDS011;63609;49.992;14.512;2023-09-07T12:59:01;5.68;;;3.53;;
75038;SDS011;63609;49.992;14.512;2023-09-07T13:01:30;7.65;;;3.97;;
75038;SDS011;63609;49.992;14.512;2023-09-07T13:04:28;4.95;;;3.90;;
75038;SDS011;63609;49.992;14.512;2023-09-07T13:06:57;5.97;;;3.60;;
75038;SDS011;63609;49.992;14.512;2023-09-07T13:09:24;6.10;;;3.90;;
75038;SDS011;63609;49.992;14.512;2023-09-07T13:11:51;6.15;;;3.80;;
75038;SDS011;63609;49.992;14.512;2023-09-07T13:14:18;6.07;;;3.60;;
75038;SDS011;63609;49.992;14.512;2023-09-07T13:16:45;6.85;;;4.25;;
75038;SDS011;63609;49.992;14.512;2023-09-07T13:19:12;7.72;;;3.42;;
75038;SDS011;63609;49.992;14.512;2023-09-07T13:21:43;5.50;;;3.42;;
75038;SDS011;63609;49.992;14.512;2023-09-07T13:24:10;5.97;;;3.63;;
75038;SDS011;63609;49.992;14.512;2023-09-07T13:26:39;5.72;;;4.00;;
75038;SDS011;63609;49.992;14.512;2023-09-07T13:29:07;4.97;;;3.97;;
75038;SDS011;63609;49.992;14.512;2023-09-07T13:31:38;6.00;;;3.45;;
75038;SDS011;63609;49.992;14.512;2023-09-07T13:34:05;5.18;;;3.35;;
75038;SDS011;63609;49.992;14.512;2023-09-07T13:36:33;6.00;;;3.72;;
75038;SDS011;63609;49.992;14.512;2023-09-07T13:39:00;6.20;;;3.53;;
75038;SDS011;63609;49.992;14.512;2023-09-07T13:41:27;6.72;;;3.72;;
75038;SDS011;63609;49.992;14.512;2023-09-07T13:43:54;7.70;;;3.30;;
75038;SDS011;63609;49.992;14.512;2023-09-07T13:46:23;8.25;;;3.75;;
75038;SDS011;63609;49.992;14.512;2023-09-07T13:48:50;5.68;;;3.53;;
75038;SDS011;63609;49.992;14.512;2023-09-07T13:51:17;5.18;;;3.45;;
75038;SDS011;63609;49.992;14.512;2023-09-07T13:53:46;5.32;;;3.38;;
75038;SDS011;63609;49.992;14.512;2023-09-07T13:56:20;6.40;;;3.60;;
75038;SDS011;63609;49.992;14.512;2023-09-07T13:58:47;5.57;;;3.60;;
75038;SDS011;63609;49.992;14.512;2023-09-07T14:01:14;4.75;;;3.40;;
75038;SDS011;63609;49.992;14.512;2023-09-07T14:03:41;5.10;;;3.50;;
75038;SDS011;63609;49.992;14.512;2023-09-07T14:06:08;5.93;;;3.70;;
75038;SDS011;63609;49.992;14.512;2023-09-07T14:08:36;6.55;;;3.13;;
75038;SDS011;63609;49.992;14.512;2023-09-07T14:11:03;4.80;;;3.38;;
75038;SDS011;63609;49.992;14.512;2023-09-07T14:13:31;6.10;;;3.85;;
75038;SDS011;63609;49.992;14.512;2023-09-07T14:16:01;4.53;;;3.50;;
75038;SDS011;63609;49.992;14.512;2023-09-07T14:18:29;6.25;;;3.83;;
75038;SDS011;63609;49.992;14.512;2023-09-07T14:20:57;7.22;;;3.83;;
75038;SDS011;63609;49.992;14.512;2023-09-07T14:23:25;6.47;;;3.75;;
75038;SDS011;63609;49.992;14.512;2023-09-07T14:25:53;5.88;;;3.60;;
75038;SDS011;63609;49.992;14.512;2023-09-07T14:28:20;5.05;;;3.58;;
75038;SDS011;63609;49.992;14.512;2023-09-07T14:30:49;4.53;;;3.28;;
75038;SDS011;63609;49.992;14.512;2023-09-07T14:33:18;5.72;;;3.70;;
75038;SDS011;63609;49.992;14.512;2023-09-07T14:35:44;6.18;;;3.70;;
75038;SDS011;63609;49.992;14.512;2023-09-07T14:38:12;8.63;;;3.53;;
75038;SDS011;63609;49.992;14.512;2023-09-07T14:40:39;6.53;;;3.33;;
75038;SDS011;63609;49.992;14.512;2023-09-07T14:43:07;7.03;;;4.22;;
75038;SDS011;63609;49.992;14.512;2023-09-07T14:45:36;6.03;;;3.92;;